ADDS METAR Data INFO
IDs: Format: Raw Decoded Include TAF

Data at: 0716 UTC 19 Oct 2017

KSUS 190654Z 00000KT 10SM CLR 10/09 A3012 RMK AO2 SLP197 T01000089
KSUS 190554Z 00000KT 10SM CLR 11/09 A3011 RMK AO2 SLP195 T01110089 10194 20106 402500044 53010
KSUS 190454Z 00000KT 10SM CLR 13/09 A3010 RMK AO2 SLP191 T01330094
KSUS 190354Z 00000KT 10SM CLR 17/08 A3009 RMK AO2 SLP184 T01720083
KSUS 190254Z VRB05KT 10SM CLR 19/08 A3008 RMK AO2 SLP183 T01890083 55000
KSUS 190154Z 17007KT 10SM CLR 19/08 A3008 RMK AO2 SLP184 T01890083
KSUS 190054Z 16005KT 10SM CLR 18/08 A3009 RMK AO2 SLP188 T01780083
KSUS 182354Z 14003KT 10SM CLR 17/09 A3008 RMK AO2 SLP188 T01670094 10239 20167 53001
KSUS 182254Z 19004KT 10SM CLR 22/08 A3007 RMK AO2 SLP182 T02170083
KSUS 182154Z 18006KT 10SM CLR 24/07 A3007 RMK AO2 SLP182 T02390072
KSUS 182054Z 18005KT 10SM CLR 24/07 A3008 RMK AO2 SLP184 T02390067 56018
KSUS 182019Z 19008KT 10SM CLR 24/06 A3008 RMK AO2 T02390061
KSUS 181954Z 20007KT 10SM CLR 24/07 A3009 RMK AO2 SLP186 T02390067
KSUS 181854Z 17008KT 10SM FEW250 23/08 A3010 RMK AO2 SLP192 T02330078
KSUS 181754Z 23006KT 10SM CLR 22/08 A3013 RMK AO2 SLP202 T02170083 10250 20044 58022
KSUS 181654Z 20008KT 10SM CLR 20/08 A3016 RMK AO2 SLP214 T02000083 $
KSUS 181554Z FEW250 21/07 A3018 RMK AO2 SLP220 T02110072 $
KSUS 181454Z 22008KT 10SM CLR 16/07 A3020 RMK AO2 SLP227 T01610072 53005
KSUS 181354Z 00000KT 10SM FEW250 11/08 A3020 RMK AO2 SLP226 T01060078
KSUS 181254Z 00000KT 10SM FEW250 06/06 A3019 RMK AO2 SLP225 T00560056
KSUS 181217Z 00000KT 9SM R08R/5500VP6000FT FEW250 05/04 A3019 RMK AO2 T00500044
KSUS 181210Z 00000KT 1 3/4SM R08R/5500VP6000FT CLR 04/04 A3019 RMK AO2 T00440044
KSUS 181154Z 00000KT 9SM CLR 05/04 A3018 RMK AO2 SLP223 T00500044 10078 20044 50003
KSUS 181054Z 00000KT 10SM CLR 05/04 A3019 RMK AO2 SLP222 T00500044
KSUS 180954Z AUTO 00000KT 10SM CLR 06/04 A3018 RMK AO2 SLP218 T00560044
KSUS 180854Z AUTO 00000KT 10SM CLR 06/04 A3018 RMK AO2 SLP217 T00560044 57002
KSUS 180754Z AUTO 00000KT 10SM CLR 07/04 A3018 RMK AO2 SLP218 T00720044
KSUS 180654Z AUTO 00000KT 10SM CLR 07/05 A3018 RMK AO2 SLP219 T00720050
KSUS 180554Z AUTO 00000KT 10SM CLR 08/05 A3018 RMK AO2 SLP220 T00780050 10139 20061 402170033 58002
KSUS 180454Z AUTO 00000KT 10SM CLR 07/06 A3019 RMK AO2 SLP222 T00670056
KSUS 180354Z 00000KT 10SM CLR 08/07 A3019 RMK AO2 SLP225 T00780067
KSUS 180254Z 00000KT 10SM CLR 09/07 A3019 RMK AO2 SLP222 T00890072 53005
KSUS 180154Z 14003KT 10SM CLR 09/07 A3018 RMK AO2 SLP221 T00940067
KSUS 180054Z 16004KT 10SM CLR 12/07 A3018 RMK AO2 SLP221 T01220072
KSUS 172354Z 16003KT 10SM CLR 14/07 A3017 RMK AO2 SLP219 T01390067 10217 20133 55005
KSUS 172254Z 16003KT 10SM FEW250 19/05 A3017 RMK AO2 SLP217 T01890050
KSUS 172154Z 19004KT 10SM CLR 21/04 A3018 RMK AO2 SLP219 T02060039
KSUS 172054Z 20007KT 10SM SCT250 22/04 A3019 RMK AO2 SLP221 T02170039 56029
KSUS 171954Z 23010G15KT 10SM SCT200 22/05 A3021 RMK AO2 SLP229 T02170050